Terminal Aerodrome Forecast
Issued by NWS North Platte, NE

Home | Current Version | Previous Version | Graphics & Text | Print | Product List | Glossary On
Versions: 1 2 3 4 5 6 7 8 9 10 11 12
000
FTUS43 KLBF 191120
TAFVTN
TAF
KVTN 191120Z 1912/2012 18007KT P6SM BKN200
     FM191400 19008KT P6SM BKN200
     FM191700 20012KT P6SM BKN200
     FM200000 17010KT P6SM BKN200
     FM200400 18012G18KT P6SM BKN200 WS020/19050KT
     FM200700 19011KT P6SM BKN150
     FM200900 22008KT P6SM BKN120
     FM201100 28009KT P6SM BKN080=

USA.gov is the U.S. government's official web portal to all federal, state and local government web resources and services.